createdAt,value
2019-01-26T00:01:30.995Z,85.20
2019-01-26T00:05:47.459Z,85.90
2019-01-26T00:10:06.839Z,86.30
2019-01-26T00:14:23.270Z,86.50
2019-01-26T00:18:39.663Z,86.60
2019-01-26T00:22:56.167Z,86.50
2019-01-26T00:27:28.073Z,86.20
2019-01-26T00:31:44.395Z,86.30
2019-01-26T00:36:03.537Z,86.00
2019-01-26T00:40:32.072Z,85.70
2019-01-26T00:44:50.773Z,85.50
2019-01-26T00:49:12.136Z,85.20
2019-01-26T00:53:32.544Z,85.30
2019-01-26T00:57:49.055Z,85.30
2019-01-26T01:02:05.514Z,85.40
2019-01-26T01:06:25.867Z,85.80
2019-01-26T01:10:42.950Z,86.30
2019-01-26T01:14:59.631Z,86.90
2019-01-26T01:19:16.315Z,87.50
2019-01-26T01:23:32.821Z,87.90
2019-01-26T01:27:49.195Z,88.60
2019-01-26T01:32:05.592Z,88.90
2019-01-26T01:36:22.100Z,89.00
2019-01-26T01:40:38.536Z,89.30
2019-01-26T01:44:54.955Z,89.90
2019-01-26T01:49:11.367Z,90.10
2019-01-26T01:53:28.139Z,90.30
2019-01-26T01:57:44.545Z,90.50
2019-01-26T02:02:01.023Z,90.60
2019-01-26T02:06:17.784Z,90.80
2019-01-26T02:10:34.307Z,91.00
2019-01-26T02:14:50.703Z,91.10
2019-01-26T02:19:07.129Z,91.30
2019-01-26T02:23:23.539Z,91.40
2019-01-26T02:27:40.250Z,91.50
2019-01-26T02:31:56.773Z,91.60
2019-01-26T02:36:13.486Z,91.70
2019-01-26T02:40:30.116Z,91.90
2019-01-26T02:44:46.817Z,91.90
2019-01-26T02:49:03.371Z,92.10
2019-01-26T02:53:19.751Z,92.10
2019-01-26T02:57:36.510Z,92.20
2019-01-26T03:01:53.452Z,92.30
2019-01-26T03:06:10.274Z,92.50
2019-01-26T03:10:26.767Z,92.70
2019-01-26T03:14:43.514Z,92.90
2019-01-26T03:18:59.939Z,93.00
2019-01-26T03:23:18.110Z,93.30
2019-01-26T03:27:34.857Z,93.20
2019-01-26T03:31:51.306Z,93.20
2019-01-26T03:36:07.841Z,93.30
2019-01-26T03:40:25.184Z,93.40
2019-01-26T03:44:42.001Z,93.40
2019-01-26T03:48:58.426Z,93.60
2019-01-26T03:53:19.075Z,93.70
2019-01-26T03:57:39.594Z,93.80
2019-01-26T04:02:01.948Z,93.80
2019-01-26T04:06:18.369Z,93.80
2019-01-26T04:11:03.567Z,93.80
2019-01-26T04:15:23.023Z,93.80
2019-01-26T04:19:43.963Z,93.80
2019-01-26T04:24:03.443Z,93.80
2019-01-26T04:28:20.023Z,93.80
2019-01-26T04:32:36.633Z,93.70
2019-01-26T04:36:53.091Z,93.80
2019-01-26T04:41:09.817Z,93.80
2019-01-26T04:45:26.576Z,93.90
2019-01-26T04:49:42.987Z,93.90
2019-01-26T04:53:59.400Z,93.90
2019-01-26T04:58:15.854Z,94.00
2019-01-26T05:02:32.286Z,94.00
2019-01-26T05:06:53.215Z,94.00
2019-01-26T05:11:10.183Z,94.00
2019-01-26T05:15:26.740Z,94.00
2019-01-26T05:19:43.267Z,93.90
2019-01-26T05:23:59.723Z,94.20
2019-01-26T05:33:26.418Z,93.90
2019-01-26T05:43:17.594Z,94.00
2019-01-26T05:47:48.782Z,94.00
2019-01-26T06:08:05.989Z,94.10
2019-01-26T06:22:30.871Z,94.20
2019-01-26T06:31:46.548Z,94.40
2019-01-26T06:41:26.781Z,94.50
2019-01-26T06:45:58.079Z,94.50
2019-01-26T06:50:31.753Z,94.60
2019-01-26T07:15:49.716Z,94.70
2019-01-26T07:34:51.868Z,94.80
2019-01-26T07:39:22.280Z,94.80
2019-01-26T07:43:50.717Z,94.80
2019-01-26T07:48:08.126Z,94.70
2019-01-26T07:52:26.675Z,94.60
2019-01-26T07:56:50.402Z,94.50
2019-01-26T08:01:08.884Z,94.50
2019-01-26T08:05:26.240Z,94.50
2019-01-26T08:09:45.092Z,94.60
2019-01-26T08:14:02.073Z,94.50
2019-01-26T08:18:28.111Z,94.50
2019-01-26T08:22:44.701Z,94.40
2019-01-26T08:27:01.119Z,94.30
2019-01-26T08:31:17.846Z,94.20
2019-01-26T08:35:34.463Z,94.20
2019-01-26T08:39:50.996Z,94.10
2019-01-26T08:44:07.486Z,93.90
2019-01-26T08:48:24.002Z,94.00
2019-01-26T08:52:40.827Z,93.90
2019-01-26T08:56:57.361Z,93.90
2019-01-26T09:01:13.856Z,93.80
2019-01-26T09:05:44.128Z,93.90
2019-01-26T09:10:01.254Z,93.80
2019-01-26T09:14:17.868Z,93.80
2019-01-26T09:18:38.802Z,93.70
2019-01-26T09:22:52.698Z,93.80
2019-01-26T09:27:09.253Z,93.80
2019-01-26T09:31:25.731Z,93.90
2019-01-26T09:35:43.257Z,93.80
2019-01-26T09:39:59.665Z,93.80
2019-01-26T09:44:16.222Z,93.70
2019-01-26T09:48:35.232Z,93.60
2019-01-26T09:52:53.026Z,93.40
2019-01-26T09:57:09.866Z,93.40
2019-01-26T10:06:36.685Z,93.20
2019-01-26T10:10:59.379Z,93.00
2019-01-26T10:15:27.773Z,92.90
2019-01-26T10:19:44.182Z,92.50
2019-01-26T10:24:01.599Z,92.30
2019-01-26T10:28:18.246Z,92.40
2019-01-26T10:32:34.773Z,92.40
2019-01-26T10:36:53.347Z,92.30
2019-01-26T10:41:11.732Z,92.20
2019-01-26T10:45:29.261Z,92.30
2019-01-26T10:49:46.207Z,92.30
2019-01-26T10:54:02.715Z,92.10
2019-01-26T10:58:19.242Z,92.10
2019-01-26T11:02:35.780Z,92.10
2019-01-26T11:06:52.526Z,92.10
2019-01-26T11:11:09.480Z,92.30
2019-01-26T11:15:25.903Z,92.40
2019-01-26T11:19:42.425Z,92.50
2019-01-26T11:23:58.934Z,92.40
2019-01-26T11:28:15.434Z,92.50
2019-01-26T11:32:31.963Z,92.40
2019-01-26T11:36:48.468Z,92.40
2019-01-26T11:41:04.978Z,92.60
2019-01-26T11:45:29.038Z,92.60
2019-01-26T11:49:47.887Z,92.70
2019-01-26T11:54:04.364Z,92.80
2019-01-26T11:58:20.871Z,92.90
2019-01-26T12:02:39.286Z,92.80
2019-01-26T12:06:57.646Z,92.70
2019-01-26T12:11:14.100Z,92.80
2019-01-26T12:15:30.916Z,92.80
2019-01-26T12:19:47.414Z,93.00
2019-01-26T12:24:04.005Z,93.10
2019-01-26T12:28:20.767Z,93.30
2019-01-26T12:32:37.293Z,93.50
2019-01-26T12:36:53.807Z,93.50
2019-01-26T12:41:10.341Z,93.50
2019-01-26T12:45:26.844Z,93.50
2019-01-26T12:49:43.634Z,93.60
2019-01-26T12:54:00.135Z,93.70
2019-01-26T12:58:16.679Z,93.70
2019-01-26T13:02:33.497Z,93.70
2019-01-26T13:06:50.043Z,93.70
2019-01-26T13:11:10.590Z,93.80
2019-01-26T13:15:27.340Z,93.60
2019-01-26T13:19:43.857Z,93.60
2019-01-26T13:24:01.207Z,93.50
2019-01-26T13:28:17.821Z,93.50
2019-01-26T13:32:34.313Z,93.60
2019-01-26T13:36:50.854Z,93.70
2019-01-26T13:41:07.331Z,93.90
2019-01-26T13:45:23.854Z,93.70
2019-01-26T13:49:44.092Z,94.10
2019-01-26T13:53:59.030Z,94.20
2019-01-26T13:58:15.831Z,94.20
2019-01-26T14:02:32.379Z,94.30
2019-01-26T14:06:48.923Z,94.20
2019-01-26T14:11:05.400Z,94.50
2019-01-26T14:15:21.996Z,94.70
2019-01-26T14:19:38.429Z,94.80
2019-01-26T14:23:54.946Z,94.80
2019-01-26T14:28:11.712Z,95.00
2019-01-26T14:32:28.269Z,94.90
2019-01-26T14:36:44.787Z,94.90
2019-01-26T14:41:01.324Z,95.00
2019-01-26T14:45:17.886Z,95.20
2019-01-26T14:49:34.379Z,95.30
2019-01-26T14:53:51.157Z,95.20
2019-01-26T14:58:07.674Z,95.20
2019-01-26T15:02:24.440Z,95.40
2019-01-26T15:06:40.986Z,95.40
2019-01-26T15:10:57.504Z,95.50
2019-01-26T15:15:16.108Z,95.60
2019-01-26T15:19:32.693Z,95.60
2019-01-26T15:23:49.188Z,95.60
2019-01-26T15:28:05.713Z,95.50
2019-01-26T15:32:22.439Z,95.70
2019-01-26T15:36:39.330Z,95.70
2019-01-26T15:40:55.884Z,95.80
2019-01-26T15:45:27.894Z,95.80
2019-01-26T15:49:44.536Z,95.80
2019-01-26T15:54:01.349Z,96.00
2019-01-26T15:58:18.135Z,96.00
2019-01-26T16:02:34.710Z,96.20
2019-01-26T16:06:51.258Z,96.40
2019-01-26T16:11:07.718Z,96.30
2019-01-26T16:15:32.345Z,96.30
2019-01-26T16:19:49.201Z,96.50
2019-01-26T16:24:06.794Z,96.40
2019-01-26T16:28:23.309Z,96.50
2019-01-26T16:32:39.834Z,96.50
2019-01-26T16:36:56.366Z,96.40
2019-01-26T16:41:12.815Z,96.40
2019-01-26T16:45:34.551Z,96.40
2019-01-26T16:49:51.113Z,96.50
2019-01-26T16:54:07.610Z,96.50
2019-01-26T16:58:24.136Z,96.60
2019-01-26T17:02:40.643Z,96.70
2019-01-26T17:06:57.454Z,96.60
2019-01-26T17:11:14.084Z,96.80
2019-01-26T17:15:30.824Z,96.70
2019-01-26T17:19:47.321Z,96.70
2019-01-26T17:24:04.103Z,96.80
2019-01-26T17:28:20.681Z,96.70
2019-01-26T17:32:37.460Z,96.90
2019-01-26T17:36:56.024Z,96.80
2019-01-26T17:41:12.943Z,97.00
2019-01-26T17:45:29.433Z,96.90
2019-01-26T17:49:45.993Z,96.90
2019-01-26T17:54:02.577Z,96.90
2019-01-26T17:58:20.218Z,97.00
2019-01-26T18:02:36.782Z,96.90
2019-01-26T18:06:53.275Z,96.80
2019-01-26T18:11:10.680Z,96.90
2019-01-26T18:15:27.215Z,96.80
2019-01-26T18:19:44.359Z,97.00
2019-01-26T18:24:01.163Z,96.90
2019-01-26T18:28:17.978Z,96.90
2019-01-26T18:32:35.724Z,97.00
2019-01-26T18:36:52.185Z,96.90
2019-01-26T18:41:09.074Z,96.80
2019-01-26T18:45:30.260Z,96.90
2019-01-26T18:49:46.696Z,96.90
2019-01-26T18:54:04.340Z,96.90
2019-01-26T18:58:21.287Z,97.00
2019-01-26T19:02:38.397Z,96.90
2019-01-26T19:06:57.887Z,97.00
2019-01-26T19:11:15.656Z,96.90
2019-01-26T19:15:32.261Z,96.80
2019-01-26T19:19:50.290Z,96.80
2019-01-26T19:24:08.412Z,96.90
2019-01-26T19:28:25.479Z,96.80
2019-01-26T19:32:46.959Z,96.80
2019-01-26T19:42:15.846Z,96.80
2019-01-26T19:46:53.407Z,96.70
2019-01-26T20:12:04.289Z,96.70
2019-01-26T20:26:54.420Z,96.60
2019-01-26T20:42:14.150Z,96.50
2019-01-26T20:51:49.847Z,96.40
2019-01-26T21:05:58.088Z,96.50
2019-01-26T21:10:39.197Z,96.30
2019-01-26T21:15:08.111Z,96.10
2019-01-26T21:40:08.024Z,96.20
2019-01-26T21:44:32.875Z,96.10
2019-01-26T21:48:56.365Z,96.20
2019-01-26T21:58:20.824Z,96.00
2019-01-26T22:02:51.902Z,95.90
2019-01-26T22:07:55.307Z,96.10
2019-01-26T22:12:49.914Z,96.00
2019-01-26T22:22:11.145Z,96.50
2019-01-26T22:37:43.547Z,96.50
2019-01-26T22:42:28.344Z,96.60
2019-01-26T23:38:13.372Z,96.30
